Airfield :
LOGIN :

Register | Disclaimer

   EN    FR    IT 

 










Legend :    VFR   Marginal VFR   IFR   Intensive IFR   Very Intensive IFR
Visi :
Ceiling :
>= 8 km
>= 3000ft
5 to 8 km
1000 to 3000 ft
1500m to 5 km
500 to 1000 ft
800 to 1500m
200 to 500 ft
< 800m
< 200 ft
Symbols :   Thunderstorms  Fog  Heavy snow  Heavy precipitations  Wind > 20 kt
SIGMETs :     Misc.  Thunderstorms  Icing  Turbulence  Mountain Waves  Volcanic Ashes







- Airport Elevation : 297 ft
- IATA code : ODB


LEBA - Córdoba

CURRENT METAR :
  • 190330Z AUTO 04003KT 4800 -RA BR OVC013/// 10/09 Q1023

EXPIRED METARs :
  • 190300Z AUTO VRB01KT 4500 -RA BR BKN013/// 10/09 Q1023
  • 190230Z AUTO VRB01KT 6000 -RA OVC014/// 10/09 Q1023
  • 190200Z AUTO 00000KT 7000 -RA OVC015/// 10/09 Q1023
  • 190130Z AUTO 27001KT 9000 OVC017/// 10/09 Q1023
  • 190100Z AUTO 15001KT 9999 OVC019/// 10/09 Q1023

TAF TAF LEBA
Valid from the 19 at 03:00 until the 19 at 12:00 UTC


190200Z 1903/1912 VRB02KT 9999 SCT015
PROB40
TEMPO 1903/1908 4000 RA BR BKN010
No reported NOTAMs for that airfield.



MET'MAP, your aeronautical weather chart ! - Copyright ORBIFLY December 2007 - Disclaimer

ORBIFLY MET'MAP TEAM :

Programming & Development : Alexandra Zaïnal
Concept & Development : Baudouin d'Aumeries
Co-Development & Prog : Marc-Olivier Méhu
Technical & hardware support : Manuel Goepfert

Contact : metmap@orbifly.com




SOURCES & CREDITS :

   NOAA